Arneckeville, Texas
Current Conditions -  °F | °C
As of 6:51 AM on Monday 24 Nov 2014 (Local Time) from KVCT Reporting Station
Clear Clear  
Wind Chill: 51°   Ceiling: Unl
Heat Index: 51°   Visibility: 10mi
Dew Point: 39°   Wind: 10mph
Humidity: 63%   Direction: 350°N
Pressure: 29.99"   Gusts: NA
Location:  29.0941°N, 97.191°W
Report Text: KVCT 241251Z AUTO 35009KT 10SM CLR 11/04 A2999 RMK AO2 SLP154 T01060039
Loading
Personal Weather Stations






























Interactive Weather Map New forecast layout! Learn more

10-Day Weather Forecast

Advertisements
Track Severe Weather on mobile